sensor_id;sensor_type;location;lat;lon;timestamp;P1;durP1;ratioP1;P2;durP2;ratioP2
48875;SDS011;34689;51.644;5.618;2022-09-12T00:02:18;6.93;;;5.05;;
48875;SDS011;34689;51.644;5.618;2022-09-12T00:04:44;8.27;;;5.13;;
48875;SDS011;34689;51.644;5.618;2022-09-12T00:07:09;9.20;;;6.20;;
48875;SDS011;34689;51.644;5.618;2022-09-12T00:09:35;7.53;;;5.18;;
48875;SDS011;34689;51.644;5.618;2022-09-12T00:12:01;6.70;;;5.40;;
48875;SDS011;34689;51.644;5.618;2022-09-12T00:14:26;8.07;;;5.57;;
48875;SDS011;34689;51.644;5.618;2022-09-12T00:16:52;7.63;;;5.10;;
48875;SDS011;34689;51.644;5.618;2022-09-12T00:19:24;7.53;;;5.00;;
48875;SDS011;34689;51.644;5.618;2022-09-12T00:21:53;9.48;;;5.40;;
48875;SDS011;34689;51.644;5.618;2022-09-12T00:24:19;7.05;;;4.82;;
48875;SDS011;34689;51.644;5.618;2022-09-12T00:26:45;7.53;;;5.32;;
48875;SDS011;34689;51.644;5.618;2022-09-12T00:29:18;6.82;;;5.22;;
48875;SDS011;34689;51.644;5.618;2022-09-12T00:31:44;7.97;;;5.47;;
48875;SDS011;34689;51.644;5.618;2022-09-12T00:34:13;6.28;;;4.78;;
48875;SDS011;34689;51.644;5.618;2022-09-12T00:36:39;10.05;;;5.57;;
48875;SDS011;34689;51.644;5.618;2022-09-12T00:39:07;7.50;;;5.38;;
48875;SDS011;34689;51.644;5.618;2022-09-12T00:41:37;8.23;;;4.57;;
48875;SDS011;34689;51.644;5.618;2022-09-12T00:55:01;6.95;;;5.50;;
48875;SDS011;34689;51.644;5.618;2022-09-12T00:57:35;8.13;;;5.00;;
48875;SDS011;34689;51.644;5.618;2022-09-12T01:00:09;7.25;;;4.72;;
48875;SDS011;34689;51.644;5.618;2022-09-12T01:02:44;8.40;;;5.57;;
48875;SDS011;34689;51.644;5.618;2022-09-12T01:05:14;6.90;;;5.10;;
48875;SDS011;34689;51.644;5.618;2022-09-12T01:07:40;8.57;;;5.70;;
48875;SDS011;34689;51.644;5.618;2022-09-12T01:10:09;9.82;;;6.00;;
48875;SDS011;34689;51.644;5.618;2022-09-12T01:12:36;7.22;;;4.97;;
48875;SDS011;34689;51.644;5.618;2022-09-12T01:15:05;7.47;;;5.50;;
48875;SDS011;34689;51.644;5.618;2022-09-12T01:17:34;7.70;;;5.38;;
48875;SDS011;34689;51.644;5.618;2022-09-12T01:31:50;6.15;;;4.70;;
48875;SDS011;34689;51.644;5.618;2022-09-12T01:37:22;5.85;;;4.35;;
48875;SDS011;34689;51.644;5.618;2022-09-12T01:40:08;6.97;;;4.68;;
48875;SDS011;34689;51.644;5.618;2022-09-12T01:45:31;7.80;;;5.10;;
48875;SDS011;34689;51.644;5.618;2022-09-12T01:50:51;8.77;;;5.05;;
48875;SDS011;34689;51.644;5.618;2022-09-12T01:53:38;8.40;;;5.25;;
48875;SDS011;34689;51.644;5.618;2022-09-12T01:56:13;8.30;;;5.03;;
48875;SDS011;34689;51.644;5.618;2022-09-12T01:59:07;7.10;;;4.95;;
48875;SDS011;34689;51.644;5.618;2022-09-12T02:02:02;5.30;;;3.92;;
48875;SDS011;34689;51.644;5.618;2022-09-12T02:04:40;6.07;;;4.50;;
48875;SDS011;34689;51.644;5.618;2022-09-12T02:07:20;7.97;;;5.47;;
48875;SDS011;34689;51.644;5.618;2022-09-12T02:10:11;8.43;;;5.28;;
48875;SDS011;34689;51.644;5.618;2022-09-12T02:13:09;5.40;;;3.78;;
48875;SDS011;34689;51.644;5.618;2022-09-12T02:15:56;6.20;;;4.20;;
48875;SDS011;34689;51.644;5.618;2022-09-12T02:18:27;5.88;;;4.22;;
48875;SDS011;34689;51.644;5.618;2022-09-12T02:20:56;7.10;;;5.22;;
48875;SDS011;34689;51.644;5.618;2022-09-12T02:23:25;7.28;;;5.00;;
48875;SDS011;34689;51.644;5.618;2022-09-12T02:25:56;7.43;;;4.63;;
48875;SDS011;34689;51.644;5.618;2022-09-12T02:28:32;7.15;;;4.68;;
48875;SDS011;34689;51.644;5.618;2022-09-12T02:31:08;6.90;;;4.68;;
48875;SDS011;34689;51.644;5.618;2022-09-12T02:37:11;6.90;;;4.72;;
48875;SDS011;34689;51.644;5.618;2022-09-12T02:39:46;5.40;;;4.15;;
48875;SDS011;34689;51.644;5.618;2022-09-12T02:42:11;6.72;;;4.80;;
48875;SDS011;34689;51.644;5.618;2022-09-12T02:44:37;6.82;;;4.95;;
48875;SDS011;34689;51.644;5.618;2022-09-12T02:47:08;8.00;;;5.15;;
48875;SDS011;34689;51.644;5.618;2022-09-12T02:49:38;6.63;;;4.65;;
48875;SDS011;34689;51.644;5.618;2022-09-12T02:52:04;6.55;;;4.43;;
48875;SDS011;34689;51.644;5.618;2022-09-12T02:54:32;5.70;;;4.40;;
48875;SDS011;34689;51.644;5.618;2022-09-12T02:57:00;7.07;;;4.82;;
48875;SDS011;34689;51.644;5.618;2022-09-12T02:59:25;6.72;;;4.72;;
48875;SDS011;34689;51.644;5.618;2022-09-12T03:10:56;6.75;;;4.70;;
48875;SDS011;34689;51.644;5.618;2022-09-12T03:21:44;5.72;;;4.03;;
48875;SDS011;34689;51.644;5.618;2022-09-12T03:24:26;5.75;;;4.35;;
48875;SDS011;34689;51.644;5.618;2022-09-12T03:27:18;5.75;;;4.20;;
48875;SDS011;34689;51.644;5.618;2022-09-12T03:29:51;8.88;;;5.38;;
48875;SDS011;34689;51.644;5.618;2022-09-12T03:32:17;6.35;;;4.57;;
48875;SDS011;34689;51.644;5.618;2022-09-12T03:34:43;8.05;;;5.10;;
48875;SDS011;34689;51.644;5.618;2022-09-12T03:37:09;7.68;;;4.50;;
48875;SDS011;34689;51.644;5.618;2022-09-12T03:39:34;9.73;;;5.10;;
48875;SDS011;34689;51.644;5.618;2022-09-12T03:42:00;8.10;;;4.78;;
48875;SDS011;34689;51.644;5.618;2022-09-12T03:44:26;8.13;;;5.63;;
48875;SDS011;34689;51.644;5.618;2022-09-12T03:46:51;9.43;;;6.80;;
48875;SDS011;34689;51.644;5.618;2022-09-12T03:49:17;8.77;;;5.70;;
48875;SDS011;34689;51.644;5.618;2022-09-12T03:51:43;7.95;;;5.47;;
48875;SDS011;34689;51.644;5.618;2022-09-12T03:54:09;9.45;;;5.53;;
48875;SDS011;34689;51.644;5.618;2022-09-12T03:56:35;10.00;;;5.10;;
48875;SDS011;34689;51.644;5.618;2022-09-12T03:59:03;8.20;;;5.38;;
48875;SDS011;34689;51.644;5.618;2022-09-12T04:01:30;10.20;;;6.60;;
48875;SDS011;34689;51.644;5.618;2022-09-12T04:03:55;12.43;;;7.32;;
48875;SDS011;34689;51.644;5.618;2022-09-12T04:06:21;11.07;;;5.85;;
48875;SDS011;34689;51.644;5.618;2022-09-12T04:08:48;6.20;;;4.35;;
48875;SDS011;34689;51.644;5.618;2022-09-12T04:11:15;7.22;;;4.45;;
48875;SDS011;34689;51.644;5.618;2022-09-12T04:13:42;9.60;;;6.05;;
48875;SDS011;34689;51.644;5.618;2022-09-12T04:16:10;9.38;;;6.10;;
48875;SDS011;34689;51.644;5.618;2022-09-12T04:18:36;7.93;;;4.70;;
48875;SDS011;34689;51.644;5.618;2022-09-12T04:21:06;8.48;;;5.57;;
48875;SDS011;34689;51.644;5.618;2022-09-12T04:23:43;8.25;;;5.72;;
48875;SDS011;34689;51.644;5.618;2022-09-12T04:26:09;9.57;;;5.30;;
48875;SDS011;34689;51.644;5.618;2022-09-12T04:28:36;10.00;;;5.75;;
48875;SDS011;34689;51.644;5.618;2022-09-12T04:31:03;7.65;;;5.10;;
48875;SDS011;34689;51.644;5.618;2022-09-12T04:33:31;10.80;;;6.55;;
48875;SDS011;34689;51.644;5.618;2022-09-12T04:36:04;10.05;;;5.93;;
48875;SDS011;34689;51.644;5.618;2022-09-12T04:38:31;9.15;;;6.28;;
48875;SDS011;34689;51.644;5.618;2022-09-12T04:40:57;9.93;;;6.25;;
48875;SDS011;34689;51.644;5.618;2022-09-12T04:43:22;9.77;;;5.65;;
48875;SDS011;34689;51.644;5.618;2022-09-12T04:45:48;16.63;;;8.23;;
48875;SDS011;34689;51.644;5.618;2022-09-12T04:48:16;11.00;;;7.07;;
48875;SDS011;34689;51.644;5.618;2022-09-12T04:50:41;13.55;;;6.95;;
48875;SDS011;34689;51.644;5.618;2022-09-12T04:53:07;11.68;;;5.80;;
48875;SDS011;34689;51.644;5.618;2022-09-12T04:55:33;9.95;;;6.13;;
48875;SDS011;34689;51.644;5.618;2022-09-12T04:57:59;8.43;;;5.95;;
48875;SDS011;34689;51.644;5.618;2022-09-12T05:00:26;11.88;;;7.03;;
48875;SDS011;34689;51.644;5.618;2022-09-12T05:02:52;11.32;;;7.40;;
48875;SDS011;34689;51.644;5.618;2022-09-12T05:05:18;9.20;;;5.95;;
48875;SDS011;34689;51.644;5.618;2022-09-12T05:07:44;9.95;;;5.15;;
48875;SDS011;34689;51.644;5.618;2022-09-12T05:10:09;10.27;;;6.32;;
48875;SDS011;34689;51.644;5.618;2022-09-12T05:12:36;11.35;;;7.00;;
48875;SDS011;34689;51.644;5.618;2022-09-12T05:15:02;9.35;;;5.75;;
48875;SDS011;34689;51.644;5.618;2022-09-12T05:17:28;11.13;;;7.65;;
48875;SDS011;34689;51.644;5.618;2022-09-12T05:19:54;11.20;;;5.78;;
48875;SDS011;34689;51.644;5.618;2022-09-12T05:22:20;8.77;;;5.50;;
48875;SDS011;34689;51.644;5.618;2022-09-12T05:24:45;9.23;;;5.80;;
48875;SDS011;34689;51.644;5.618;2022-09-12T05:27:12;9.82;;;5.32;;
48875;SDS011;34689;51.644;5.618;2022-09-12T05:29:38;10.35;;;6.38;;
48875;SDS011;34689;51.644;5.618;2022-09-12T05:32:04;11.57;;;7.22;;
48875;SDS011;34689;51.644;5.618;2022-09-12T05:34:29;9.15;;;6.15;;
48875;SDS011;34689;51.644;5.618;2022-09-12T05:36:55;9.23;;;5.80;;
48875;SDS011;34689;51.644;5.618;2022-09-12T05:39:21;11.75;;;7.15;;
48875;SDS011;34689;51.644;5.618;2022-09-12T05:41:47;11.88;;;7.07;;
48875;SDS011;34689;51.644;5.618;2022-09-12T05:44:13;10.27;;;5.57;;
48875;SDS011;34689;51.644;5.618;2022-09-12T05:46:40;10.57;;;6.30;;
48875;SDS011;34689;51.644;5.618;2022-09-12T05:49:10;13.07;;;6.50;;
48875;SDS011;34689;51.644;5.618;2022-09-12T05:51:37;9.20;;;6.05;;
48875;SDS011;34689;51.644;5.618;2022-09-12T05:54:06;11.10;;;6.43;;
48875;SDS011;34689;51.644;5.618;2022-09-12T05:56:35;11.10;;;6.55;;
48875;SDS011;34689;51.644;5.618;2022-09-12T05:59:06;13.80;;;7.47;;
48875;SDS011;34689;51.644;5.618;2022-09-12T06:01:36;7.20;;;5.38;;
48875;SDS011;34689;51.644;5.618;2022-09-12T06:04:03;10.20;;;5.68;;
48875;SDS011;34689;51.644;5.618;2022-09-12T06:06:34;9.20;;;6.30;;
48875;SDS011;34689;51.644;5.618;2022-09-12T06:09:01;9.05;;;5.20;;
48875;SDS011;34689;51.644;5.618;2022-09-12T06:11:30;6.72;;;4.25;;
48875;SDS011;34689;51.644;5.618;2022-09-12T06:13:58;12.82;;;5.25;;
48875;SDS011;34689;51.644;5.618;2022-09-12T06:16:26;9.38;;;5.30;;
48875;SDS011;34689;51.644;5.618;2022-09-12T06:19:12;10.02;;;6.15;;
48875;SDS011;34689;51.644;5.618;2022-09-12T06:21:42;11.70;;;7.35;;
48875;SDS011;34689;51.644;5.618;2022-09-12T06:24:09;13.75;;;8.23;;
48875;SDS011;34689;51.644;5.618;2022-09-12T06:26:35;9.82;;;6.20;;
48875;SDS011;34689;51.644;5.618;2022-09-12T06:29:01;10.65;;;6.72;;
48875;SDS011;34689;51.644;5.618;2022-09-12T06:31:28;13.95;;;6.53;;
48875;SDS011;34689;51.644;5.618;2022-09-12T06:33:58;10.07;;;6.03;;
48875;SDS011;34689;51.644;5.618;2022-09-12T06:36:29;9.35;;;6.65;;
48875;SDS011;34689;51.644;5.618;2022-09-12T06:38:57;9.50;;;6.15;;
48875;SDS011;34689;51.644;5.618;2022-09-12T06:41:26;10.38;;;6.80;;
48875;SDS011;34689;51.644;5.618;2022-09-12T06:43:53;9.98;;;6.45;;
48875;SDS011;34689;51.644;5.618;2022-09-12T06:46:19;10.60;;;5.97;;
48875;SDS011;34689;51.644;5.618;2022-09-12T06:48:45;10.50;;;7.22;;
48875;SDS011;34689;51.644;5.618;2022-09-12T06:51:12;12.07;;;6.82;;
48875;SDS011;34689;51.644;5.618;2022-09-12T06:53:40;11.80;;;7.53;;
48875;SDS011;34689;51.644;5.618;2022-09-12T06:56:14;10.50;;;6.90;;
48875;SDS011;34689;51.644;5.618;2022-09-12T06:58:41;12.77;;;7.43;;
48875;SDS011;34689;51.644;5.618;2022-09-12T07:01:09;10.38;;;6.13;;
48875;SDS011;34689;51.644;5.618;2022-09-12T07:03:52;6.88;;;5.05;;
48875;SDS011;34689;51.644;5.618;2022-09-12T07:06:19;11.23;;;5.35;;
48875;SDS011;34689;51.644;5.618;2022-09-12T07:08:48;9.45;;;5.97;;
48875;SDS011;34689;51.644;5.618;2022-09-12T07:11:15;9.65;;;5.85;;
48875;SDS011;34689;51.644;5.618;2022-09-12T07:13:46;8.70;;;6.18;;
48875;SDS011;34689;51.644;5.618;2022-09-12T07:16:13;10.48;;;6.40;;
48875;SDS011;34689;51.644;5.618;2022-09-12T07:18:39;7.90;;;5.32;;
48875;SDS011;34689;51.644;5.618;2022-09-12T07:21:06;8.95;;;5.40;;
48875;SDS011;34689;51.644;5.618;2022-09-12T07:23:37;8.00;;;5.07;;
48875;SDS011;34689;51.644;5.618;2022-09-12T07:26:06;11.93;;;7.22;;
48875;SDS011;34689;51.644;5.618;2022-09-12T07:28:36;9.60;;;5.68;;
48875;SDS011;34689;51.644;5.618;2022-09-12T07:33:33;9.82;;;6.47;;
48875;SDS011;34689;51.644;5.618;2022-09-12T07:36:00;10.60;;;7.05;;
48875;SDS011;34689;51.644;5.618;2022-09-12T07:38:35;7.57;;;4.47;;
48875;SDS011;34689;51.644;5.618;2022-09-12T07:41:08;8.07;;;5.38;;
48875;SDS011;34689;51.644;5.618;2022-09-12T07:43:37;11.27;;;6.05;;
48875;SDS011;34689;51.644;5.618;2022-09-12T07:46:03;8.50;;;5.00;;
48875;SDS011;34689;51.644;5.618;2022-09-12T07:48:29;7.45;;;4.78;;
48875;SDS011;34689;51.644;5.618;2022-09-12T07:50:58;8.73;;;4.88;;
48875;SDS011;34689;51.644;5.618;2022-09-12T07:53:25;6.18;;;4.25;;
48875;SDS011;34689;51.644;5.618;2022-09-12T07:56:12;4.97;;;3.78;;
48875;SDS011;34689;51.644;5.618;2022-09-12T07:58:39;5.57;;;3.72;;
48875;SDS011;34689;51.644;5.618;2022-09-12T08:01:13;6.10;;;4.18;;
48875;SDS011;34689;51.644;5.618;2022-09-12T08:03:43;6.78;;;3.88;;
48875;SDS011;34689;51.644;5.618;2022-09-12T08:06:12;6.10;;;4.65;;
48875;SDS011;34689;51.644;5.618;2022-09-12T08:08:40;7.13;;;4.32;;
48875;SDS011;34689;51.644;5.618;2022-09-12T08:11:08;6.13;;;4.28;;
48875;SDS011;34689;51.644;5.618;2022-09-12T08:13:36;4.28;;;3.33;;
48875;SDS011;34689;51.644;5.618;2022-09-12T08:16:04;3.30;;;2.63;;
48875;SDS011;34689;51.644;5.618;2022-09-12T08:18:32;8.90;;;5.65;;
48875;SDS011;34689;51.644;5.618;2022-09-12T08:20:58;7.72;;;5.10;;
48875;SDS011;34689;51.644;5.618;2022-09-12T08:23:26;11.55;;;7.40;;
48875;SDS011;34689;51.644;5.618;2022-09-12T08:25:56;8.02;;;5.38;;
48875;SDS011;34689;51.644;5.618;2022-09-12T08:28:25;9.05;;;6.53;;
48875;SDS011;34689;51.644;5.618;2022-09-12T08:30:52;8.43;;;6.57;;
48875;SDS011;34689;51.644;5.618;2022-09-12T08:33:18;6.85;;;5.13;;
48875;SDS011;34689;51.644;5.618;2022-09-12T08:35:44;6.43;;;4.53;;
48875;SDS011;34689;51.644;5.618;2022-09-12T08:38:10;9.57;;;6.63;;
48875;SDS011;34689;51.644;5.618;2022-09-12T08:41:11;9.90;;;6.60;;
48875;SDS011;34689;51.644;5.618;2022-09-12T08:48:58;10.85;;;7.10;;
48875;SDS011;34689;51.644;5.618;2022-09-12T08:51:26;8.10;;;6.10;;
48875;SDS011;34689;51.644;5.618;2022-09-12T08:53:53;9.57;;;6.22;;
48875;SDS011;34689;51.644;5.618;2022-09-12T08:56:24;9.65;;;6.60;;
48875;SDS011;34689;51.644;5.618;2022-09-12T08:58:53;9.95;;;6.38;;
48875;SDS011;34689;51.644;5.618;2022-09-12T09:18:49;7.32;;;5.15;;
48875;SDS011;34689;51.644;5.618;2022-09-12T09:21:22;7.03;;;4.97;;
48875;SDS011;34689;51.644;5.618;2022-09-12T09:23:54;10.60;;;5.85;;
48875;SDS011;34689;51.644;5.618;2022-09-12T09:26:28;8.48;;;6.43;;
48875;SDS011;34689;51.644;5.618;2022-09-12T09:29:46;9.13;;;5.70;;
48875;SDS011;34689;51.644;5.618;2022-09-12T09:31:54;11.57;;;6.95;;
48875;SDS011;34689;51.644;5.618;2022-09-12T09:34:26;8.25;;;5.70;;
48875;SDS011;34689;51.644;5.618;2022-09-12T09:37:04;7.43;;;5.33;;
48875;SDS011;34689;51.644;5.618;2022-09-12T09:45:20;7.40;;;4.78;;
48875;SDS011;34689;51.644;5.618;2022-09-12T09:47:52;8.18;;;5.05;;
48875;SDS011;34689;51.644;5.618;2022-09-12T09:50:23;7.90;;;4.72;;
48875;SDS011;34689;51.644;5.618;2022-09-12T09:52:50;5.38;;;4.43;;
48875;SDS011;34689;51.644;5.618;2022-09-12T09:55:20;4.75;;;3.10;;
48875;SDS011;34689;51.644;5.618;2022-09-12T09:57:51;5.97;;;2.78;;
48875;SDS011;34689;51.644;5.618;2022-09-12T10:06:20;3.50;;;2.75;;
48875;SDS011;34689;51.644;5.618;2022-09-12T10:08:49;3.33;;;2.45;;
48875;SDS011;34689;51.644;5.618;2022-09-12T10:14:02;2.80;;;2.28;;
48875;SDS011;34689;51.644;5.618;2022-09-12T10:16:32;3.33;;;2.33;;
48875;SDS011;34689;51.644;5.618;2022-09-12T10:19:19;2.63;;;1.90;;
48875;SDS011;34689;51.644;5.618;2022-09-12T10:21:58;2.42;;;2.20;;
48875;SDS011;34689;51.644;5.618;2022-09-12T10:29:43;1.60;;;0.98;;
48875;SDS011;34689;51.644;5.618;2022-09-12T10:32:10;1.30;;;1.05;;
48875;SDS011;34689;51.644;5.618;2022-09-12T10:34:43;1.77;;;1.40;;
48875;SDS011;34689;51.644;5.618;2022-09-12T10:37:16;1.45;;;1.13;;
48875;SDS011;34689;51.644;5.618;2022-09-12T10:39:56;3.30;;;1.42;;
48875;SDS011;34689;51.644;5.618;2022-09-12T10:45:30;2.25;;;1.75;;
48875;SDS011;34689;51.644;5.618;2022-09-12T10:48:21;2.03;;;1.50;;
48875;SDS011;34689;51.644;5.618;2022-09-12T10:50:45;3.17;;;2.00;;
48875;SDS011;34689;51.644;5.618;2022-09-12T10:53:18;3.63;;;2.13;;
48875;SDS011;34689;51.644;5.618;2022-09-12T10:56:00;3.15;;;2.78;;
48875;SDS011;34689;51.644;5.618;2022-09-12T11:06:48;2.77;;;2.27;;
48875;SDS011;34689;51.644;5.618;2022-09-12T11:11:52;1.50;;;1.20;;
48875;SDS011;34689;51.644;5.618;2022-09-12T11:25:19;2.15;;;1.40;;
48875;SDS011;34689;51.644;5.618;2022-09-12T11:28:21;1.73;;;1.35;;
48875;SDS011;34689;51.644;5.618;2022-09-12T11:31:00;1.40;;;1.17;;
48875;SDS011;34689;51.644;5.618;2022-09-12T11:33:49;1.48;;;1.10;;
48875;SDS011;34689;51.644;5.618;2022-09-12T11:39:05;1.63;;;1.00;;
48875;SDS011;34689;51.644;5.618;2022-09-12T11:41:42;1.15;;;0.95;;
48875;SDS011;34689;51.644;5.618;2022-09-12T11:44:32;2.05;;;1.30;;
48875;SDS011;34689;51.644;5.618;2022-09-12T11:47:11;2.10;;;1.52;;
48875;SDS011;34689;51.644;5.618;2022-09-12T11:50:14;2.10;;;1.58;;
48875;SDS011;34689;51.644;5.618;2022-09-12T11:52:39;2.45;;;1.42;;
48875;SDS011;34689;51.644;5.618;2022-09-12T11:55:15;2.17;;;1.67;;
48875;SDS011;34689;51.644;5.618;2022-09-12T11:57:44;5.88;;;1.77;;
48875;SDS011;34689;51.644;5.618;2022-09-12T12:00:25;1.77;;;1.55;;
48875;SDS011;34689;51.644;5.618;2022-09-12T12:03:10;2.85;;;1.30;;
48875;SDS011;34689;51.644;5.618;2022-09-12T12:08:05;2.33;;;1.33;;
48875;SDS011;34689;51.644;5.618;2022-09-12T12:10:41;1.52;;;1.00;;
48875;SDS011;34689;51.644;5.618;2022-09-12T12:16:17;1.20;;;0.90;;
48875;SDS011;34689;51.644;5.618;2022-09-12T12:18:45;0.93;;;0.90;;
48875;SDS011;34689;51.644;5.618;2022-09-12T12:29:08;1.10;;;0.87;;
48875;SDS011;34689;51.644;5.618;2022-09-12T12:58:03;1.83;;;1.40;;
48875;SDS011;34689;51.644;5.618;2022-09-12T13:05:37;1.60;;;1.43;;
48875;SDS011;34689;51.644;5.618;2022-09-12T13:08:08;1.02;;;0.93;;
48875;SDS011;34689;51.644;5.618;2022-09-12T13:10:50;1.45;;;1.10;;
48875;SDS011;34689;51.644;5.618;2022-09-12T13:13:31;1.50;;;0.90;;
48875;SDS011;34689;51.644;5.618;2022-09-12T13:16:00;0.95;;;0.77;;
48875;SDS011;34689;51.644;5.618;2022-09-12T13:18:47;3.88;;;1.30;;
48875;SDS011;34689;51.644;5.618;2022-09-12T13:21:16;1.42;;;1.00;;
48875;SDS011;34689;51.644;5.618;2022-09-12T13:24:03;1.58;;;1.00;;
48875;SDS011;34689;51.644;5.618;2022-09-12T13:26:41;1.42;;;1.02;;
48875;SDS011;34689;51.644;5.618;2022-09-12T13:31:37;1.65;;;1.17;;
48875;SDS011;34689;51.644;5.618;2022-09-12T13:34:04;2.88;;;1.10;;
48875;SDS011;34689;51.644;5.618;2022-09-12T13:39:28;1.73;;;1.27;;
48875;SDS011;34689;51.644;5.618;2022-09-12T13:44:51;1.90;;;1.40;;
48875;SDS011;34689;51.644;5.618;2022-09-12T13:47:37;1.27;;;1.00;;
48875;SDS011;34689;51.644;5.618;2022-09-12T13:50:13;1.02;;;0.93;;
48875;SDS011;34689;51.644;5.618;2022-09-12T13:52:52;1.25;;;0.93;;
48875;SDS011;34689;51.644;5.618;2022-09-12T13:55:24;1.52;;;1.17;;
48875;SDS011;34689;51.644;5.618;2022-09-12T13:58:06;1.67;;;1.30;;
48875;SDS011;34689;51.644;5.618;2022-09-12T14:00:39;2.75;;;1.00;;
48875;SDS011;34689;51.644;5.618;2022-09-12T14:03:24;1.65;;;1.52;;
48875;SDS011;34689;51.644;5.618;2022-09-12T14:06:10;1.58;;;1.10;;
48875;SDS011;34689;51.644;5.618;2022-09-12T14:08:39;1.52;;;1.42;;
48875;SDS011;34689;51.644;5.618;2022-09-12T14:11:09;1.10;;;0.90;;
48875;SDS011;34689;51.644;5.618;2022-09-12T14:13:35;1.83;;;1.20;;
48875;SDS011;34689;51.644;5.618;2022-09-12T14:16:05;1.50;;;1.10;;
48875;SDS011;34689;51.644;5.618;2022-09-12T14:18:36;1.50;;;1.13;;
48875;SDS011;34689;51.644;5.618;2022-09-12T14:21:07;3.58;;;1.38;;
48875;SDS011;34689;51.644;5.618;2022-09-12T14:26:04;1.70;;;0.70;;
48875;SDS011;34689;51.644;5.618;2022-09-12T14:28:35;1.83;;;0.82;;
48875;SDS011;34689;51.644;5.618;2022-09-12T14:31:17;1.52;;;1.25;;
48875;SDS011;34689;51.644;5.618;2022-09-12T14:33:48;1.45;;;0.98;;
48875;SDS011;34689;51.644;5.618;2022-09-12T14:36:33;1.70;;;1.15;;
48875;SDS011;34689;51.644;5.618;2022-09-12T14:39:04;1.00;;;0.90;;
48875;SDS011;34689;51.644;5.618;2022-09-12T14:41:39;1.08;;;0.85;;
48875;SDS011;34689;51.644;5.618;2022-09-12T14:44:07;0.82;;;0.80;;
48875;SDS011;34689;51.644;5.618;2022-09-12T14:46:39;1.23;;;0.95;;
48875;SDS011;34689;51.644;5.618;2022-09-12T14:49:08;1.58;;;0.88;;
48875;SDS011;34689;51.644;5.618;2022-09-12T14:51:38;1.30;;;1.13;;
48875;SDS011;34689;51.644;5.618;2022-09-12T14:57:06;1.17;;;0.95;;
48875;SDS011;34689;51.644;5.618;2022-09-12T14:59:50;0.80;;;0.60;;
48875;SDS011;34689;51.644;5.618;2022-09-12T15:09:58;0.65;;;0.65;;
48875;SDS011;34689;51.644;5.618;2022-09-12T15:12:26;0.88;;;0.70;;
48875;SDS011;34689;51.644;5.618;2022-09-12T15:14:52;0.55;;;0.43;;
48875;SDS011;34689;51.644;5.618;2022-09-12T15:17:23;0.57;;;0.57;;
48875;SDS011;34689;51.644;5.618;2022-09-12T15:19:52;0.88;;;0.70;;
48875;SDS011;34689;51.644;5.618;2022-09-12T15:22:17;0.70;;;0.60;;
48875;SDS011;34689;51.644;5.618;2022-09-12T15:24:45;0.82;;;0.70;;
48875;SDS011;34689;51.644;5.618;2022-09-12T15:27:11;1.23;;;0.60;;
48875;SDS011;34689;51.644;5.618;2022-09-12T15:29:37;0.88;;;0.70;;
48875;SDS011;34689;51.644;5.618;2022-09-12T15:32:09;0.77;;;0.50;;
48875;SDS011;34689;51.644;5.618;2022-09-12T15:34:39;1.08;;;0.63;;
48875;SDS011;34689;51.644;5.618;2022-09-12T15:37:10;1.48;;;0.73;;
48875;SDS011;34689;51.644;5.618;2022-09-12T15:39:38;1.10;;;0.65;;
48875;SDS011;34689;51.644;5.618;2022-09-12T15:42:03;1.67;;;1.00;;
48875;SDS011;34689;51.644;5.618;2022-09-12T15:44:29;0.77;;;0.77;;
48875;SDS011;34689;51.644;5.618;2022-09-12T15:46:55;1.27;;;0.88;;
48875;SDS011;34689;51.644;5.618;2022-09-12T15:49:20;0.50;;;0.50;;
48875;SDS011;34689;51.644;5.618;2022-09-12T15:51:46;1.20;;;0.75;;
48875;SDS011;34689;51.644;5.618;2022-09-12T15:54:12;0.85;;;0.73;;
48875;SDS011;34689;51.644;5.618;2022-09-12T15:56:39;0.50;;;0.50;;
48875;SDS011;34689;51.644;5.618;2022-09-12T15:59:05;1.05;;;0.68;;
48875;SDS011;34689;51.644;5.618;2022-09-12T16:01:30;0.63;;;0.55;;
48875;SDS011;34689;51.644;5.618;2022-09-12T16:03:56;2.20;;;0.88;;
48875;SDS011;34689;51.644;5.618;2022-09-12T16:06:23;0.70;;;0.60;;
48875;SDS011;34689;51.644;5.618;2022-09-12T16:08:49;0.90;;;0.80;;
48875;SDS011;34689;51.644;5.618;2022-09-12T16:11:22;1.40;;;0.63;;
48875;SDS011;34689;51.644;5.618;2022-09-12T16:13:50;2.15;;;1.20;;
48875;SDS011;34689;51.644;5.618;2022-09-12T16:16:19;0.95;;;0.85;;
48875;SDS011;34689;51.644;5.618;2022-09-12T16:18:45;0.70;;;0.60;;
48875;SDS011;34689;51.644;5.618;2022-09-12T16:21:10;0.68;;;0.50;;
48875;SDS011;34689;51.644;5.618;2022-09-12T16:23:40;1.00;;;0.70;;
48875;SDS011;34689;51.644;5.618;2022-09-12T16:26:07;0.50;;;0.50;;
48875;SDS011;34689;51.644;5.618;2022-09-12T16:28:32;0.73;;;0.70;;
48875;SDS011;34689;51.644;5.618;2022-09-12T16:30:59;1.15;;;0.75;;
48875;SDS011;34689;51.644;5.618;2022-09-12T16:33:27;0.90;;;0.80;;
48875;SDS011;34689;51.644;5.618;2022-09-12T16:36:16;2.15;;;0.70;;
48875;SDS011;34689;51.644;5.618;2022-09-12T16:38:45;0.50;;;0.45;;
48875;SDS011;34689;51.644;5.618;2022-09-12T16:41:14;1.42;;;0.70;;
48875;SDS011;34689;51.644;5.618;2022-09-12T16:43:41;0.80;;;0.80;;
48875;SDS011;34689;51.644;5.618;2022-09-12T16:46:15;1.10;;;0.75;;
48875;SDS011;34689;51.644;5.618;2022-09-12T16:48:46;0.80;;;0.75;;
48875;SDS011;34689;51.644;5.618;2022-09-12T16:54:09;0.73;;;0.68;;
48875;SDS011;34689;51.644;5.618;2022-09-12T16:56:34;0.90;;;0.60;;
48875;SDS011;34689;51.644;5.618;2022-09-12T16:59:00;0.70;;;0.70;;
48875;SDS011;34689;51.644;5.618;2022-09-12T17:01:28;1.02;;;0.40;;
48875;SDS011;34689;51.644;5.618;2022-09-12T17:03:54;0.65;;;0.50;;
48875;SDS011;34689;51.644;5.618;2022-09-12T17:06:21;0.40;;;0.40;;
48875;SDS011;34689;51.644;5.618;2022-09-12T17:08:48;1.55;;;0.43;;
48875;SDS011;34689;51.644;5.618;2022-09-12T17:11:23;0.98;;;0.60;;
48875;SDS011;34689;51.644;5.618;2022-09-12T17:13:55;0.55;;;0.50;;
48875;SDS011;34689;51.644;5.618;2022-09-12T17:16:24;0.95;;;0.60;;
48875;SDS011;34689;51.644;5.618;2022-09-12T17:18:50;0.50;;;0.50;;
48875;SDS011;34689;51.644;5.618;2022-09-12T17:21:19;0.60;;;0.50;;
48875;SDS011;34689;51.644;5.618;2022-09-12T17:23:45;0.63;;;0.40;;
48875;SDS011;34689;51.644;5.618;2022-09-12T17:26:11;0.55;;;0.40;;
48875;SDS011;34689;51.644;5.618;2022-09-12T17:28:38;0.50;;;0.50;;
48875;SDS011;34689;51.644;5.618;2022-09-12T17:31:05;0.30;;;0.30;;
48875;SDS011;34689;51.644;5.618;2022-09-12T17:33:33;0.68;;;0.50;;
48875;SDS011;34689;51.644;5.618;2022-09-12T17:36:03;0.50;;;0.45;;
48875;SDS011;34689;51.644;5.618;2022-09-12T17:38:35;1.25;;;0.60;;
48875;SDS011;34689;51.644;5.618;2022-09-12T17:41:09;1.50;;;0.63;;
48875;SDS011;34689;51.644;5.618;2022-09-12T17:43:40;0.55;;;0.50;;
48875;SDS011;34689;51.644;5.618;2022-09-12T17:46:06;0.70;;;0.50;;
48875;SDS011;34689;51.644;5.618;2022-09-12T17:48:33;0.50;;;0.50;;
48875;SDS011;34689;51.644;5.618;2022-09-12T17:51:06;0.47;;;0.30;;
48875;SDS011;34689;51.644;5.618;2022-09-12T17:53:35;0.40;;;0.40;;
48875;SDS011;34689;51.644;5.618;2022-09-12T17:56:02;0.55;;;0.50;;
48875;SDS011;34689;51.644;5.618;2022-09-12T17:58:29;0.60;;;0.50;;
48875;SDS011;34689;51.644;5.618;2022-09-12T18:01:03;0.50;;;0.47;;
48875;SDS011;34689;51.644;5.618;2022-09-12T18:03:54;0.57;;;0.50;;
48875;SDS011;34689;51.644;5.618;2022-09-12T18:06:21;0.52;;;0.50;;
48875;SDS011;34689;51.644;5.618;2022-09-12T18:08:48;0.82;;;0.57;;
48875;SDS011;34689;51.644;5.618;2022-09-12T18:11:13;0.43;;;0.43;;
48875;SDS011;34689;51.644;5.618;2022-09-12T18:13:39;1.13;;;0.60;;
48875;SDS011;34689;51.644;5.618;2022-09-12T18:16:05;0.80;;;0.63;;
48875;SDS011;34689;51.644;5.618;2022-09-12T18:18:33;0.75;;;0.68;;
48875;SDS011;34689;51.644;5.618;2022-09-12T18:21:00;1.00;;;0.75;;